createdAt,value
2022-08-26T00:04:49.964Z,26.60
2022-08-26T00:09:54.434Z,26.60
2022-08-26T00:14:57.617Z,26.60
2022-08-26T00:20:00.014Z,26.50
2022-08-26T00:25:03.534Z,26.50
2022-08-26T00:30:09.307Z,26.50
2022-08-26T00:35:12.827Z,26.50
2022-08-26T00:40:19.444Z,26.50
2022-08-26T00:45:22.426Z,26.40
2022-08-26T00:50:32.905Z,26.50
2022-08-26T00:55:41.444Z,26.40
2022-08-26T01:00:48.877Z,26.50
2022-08-26T01:05:57.286Z,26.40
2022-08-26T01:11:00.394Z,26.40
2022-08-26T01:16:05.007Z,26.40
2022-08-26T01:21:42.025Z,26.40
2022-08-26T01:26:45.061Z,26.40
2022-08-26T01:31:52.267Z,26.40
2022-08-26T01:37:01.495Z,26.40
2022-08-26T01:42:10.226Z,26.40
2022-08-26T01:47:15.289Z,26.30
2022-08-26T01:52:23.601Z,26.30
2022-08-26T01:57:30.690Z,26.30
2022-08-26T02:02:32.910Z,26.30
2022-08-26T02:07:35.716Z,26.30
2022-08-26T02:12:38.928Z,26.30
2022-08-26T02:17:45.723Z,26.30
2022-08-26T02:22:48.293Z,26.20
2022-08-26T02:27:51.536Z,26.20
2022-08-26T02:32:54.547Z,26.20
2022-08-26T02:37:57.658Z,26.20
2022-08-26T02:43:00.184Z,26.20
2022-08-26T02:48:11.567Z,26.20
2022-08-26T02:53:15.486Z,26.10
2022-08-26T02:58:17.892Z,26.20
2022-08-26T03:03:20.686Z,26.10
2022-08-26T03:08:25.953Z,26.10
2022-08-26T03:13:30.080Z,26.10
2022-08-26T03:18:33.197Z,26.10
2022-08-26T03:23:35.404Z,26.10
2022-08-26T03:28:58.758Z,26.10
2022-08-26T03:34:01.049Z,26.00
2022-08-26T03:39:03.444Z,26.00
2022-08-26T03:44:08.554Z,26.10
2022-08-26T03:49:10.999Z,26.00
2022-08-26T03:54:13.292Z,26.00
2022-08-26T03:59:15.380Z,26.00
2022-08-26T04:04:18.185Z,26.00
2022-08-26T04:09:27.141Z,26.00
2022-08-26T04:14:30.851Z,26.00
2022-08-26T04:19:34.377Z,26.00
2022-08-26T04:24:39.223Z,26.00
2022-08-26T04:29:41.926Z,26.00
2022-08-26T04:34:44.868Z,26.00
2022-08-26T04:39:53.054Z,25.90
2022-08-26T04:44:55.254Z,25.90
2022-08-26T04:49:57.571Z,25.90
2022-08-26T04:55:00.250Z,25.90
2022-08-26T05:00:08.257Z,25.90
2022-08-26T05:05:10.872Z,25.90
2022-08-26T05:10:13.271Z,25.90
2022-08-26T05:15:17.096Z,25.90
2022-08-26T05:20:22.710Z,25.90
2022-08-26T05:25:28.231Z,26.00
2022-08-26T05:30:31.136Z,26.00
2022-08-26T05:35:37.685Z,25.90
2022-08-26T05:40:44.317Z,25.90
2022-08-26T05:45:49.174Z,26.00
2022-08-26T05:50:53.012Z,26.00
2022-08-26T05:55:56.875Z,25.90
2022-08-26T06:01:00.457Z,26.00
2022-08-26T06:06:07.526Z,25.90
2022-08-26T06:11:18.605Z,26.00
2022-08-26T06:16:26.596Z,26.00
2022-08-26T06:21:32.682Z,26.00
2022-08-26T06:26:36.601Z,26.00
2022-08-26T06:31:47.534Z,26.00
2022-08-26T06:36:59.271Z,25.90
2022-08-26T06:42:03.040Z,25.80
2022-08-26T06:47:09.147Z,25.80
2022-08-26T06:52:12.289Z,25.90
2022-08-26T06:57:14.890Z,26.00
2022-08-26T07:02:20.138Z,26.00
2022-08-26T07:07:23.162Z,26.00
2022-08-26T07:12:30.852Z,26.00
2022-08-26T07:17:34.814Z,26.10
2022-08-26T07:22:38.950Z,26.00
2022-08-26T07:27:41.420Z,26.10
2022-08-26T07:32:43.939Z,26.20
2022-08-26T07:37:46.539Z,26.10
2022-08-26T07:42:52.086Z,26.10
2022-08-26T07:47:55.618Z,26.20
2022-08-26T07:53:01.969Z,26.20
2022-08-26T07:58:05.329Z,26.30
2022-08-26T08:03:09.777Z,26.30
2022-08-26T08:08:26.648Z,26.40
2022-08-26T08:13:30.624Z,26.40
2022-08-26T08:18:35.170Z,26.40
2022-08-26T08:23:37.767Z,26.40
2022-08-26T08:28:41.157Z,26.50
2022-08-26T08:33:43.798Z,26.60
2022-08-26T08:38:48.759Z,26.70
2022-08-26T08:43:58.379Z,26.80
2022-08-26T08:49:03.585Z,26.80
2022-08-26T08:54:07.613Z,26.90
2022-08-26T08:59:24.072Z,26.90
2022-08-26T09:04:49.414Z,27.00
2022-08-26T09:10:02.106Z,27.10
2022-08-26T09:15:20.831Z,27.30
2022-08-26T09:20:52.395Z,27.30
2022-08-26T09:26:02.006Z,27.30
2022-08-26T09:31:27.127Z,27.30
2022-08-26T09:36:41.215Z,27.50
2022-08-26T09:41:43.941Z,27.50
2022-08-26T09:46:59.259Z,27.60
2022-08-26T09:52:24.640Z,27.60
2022-08-26T09:57:36.414Z,27.70
2022-08-26T10:02:47.731Z,27.70
2022-08-26T10:07:52.894Z,27.60
2022-08-26T10:13:10.968Z,27.80
2022-08-26T10:18:19.790Z,27.80
2022-08-26T10:23:26.866Z,27.90
2022-08-26T10:28:38.090Z,28.00
2022-08-26T10:33:41.506Z,28.10
2022-08-26T10:38:44.347Z,28.10
2022-08-26T10:43:58.992Z,28.20
2022-08-26T10:49:14.936Z,28.30
2022-08-26T10:54:42.663Z,28.20
2022-08-26T10:59:53.196Z,28.10
2022-08-26T11:04:57.584Z,28.20
2022-08-26T11:10:08.018Z,28.10
2022-08-26T11:15:19.258Z,28.10
2022-08-26T11:20:32.979Z,28.00
2022-08-26T11:25:55.599Z,28.10
2022-08-26T11:30:58.393Z,28.10
2022-08-26T11:36:01.074Z,28.20
2022-08-26T11:41:21.582Z,28.20
2022-08-26T11:46:30.015Z,28.20
2022-08-26T11:51:38.236Z,28.20
2022-08-26T11:56:46.342Z,28.20
2022-08-26T12:01:54.616Z,28.20
2022-08-26T12:07:12.549Z,28.20
2022-08-26T12:12:17.576Z,28.20
2022-08-26T12:17:27.471Z,28.20
2022-08-26T12:22:35.696Z,28.20
2022-08-26T12:27:41.517Z,28.30
2022-08-26T12:32:57.234Z,28.20
2022-08-26T12:38:01.946Z,28.20
2022-08-26T12:43:06.461Z,28.30
2022-08-26T12:48:24.476Z,28.30
2022-08-26T12:53:40.413Z,28.30
2022-08-26T12:58:47.031Z,28.30
2022-08-26T13:03:50.525Z,28.30
2022-08-26T13:09:00.218Z,28.30
2022-08-26T13:14:09.335Z,28.30
2022-08-26T13:19:15.703Z,28.30
2022-08-26T13:24:40.834Z,28.20
2022-08-26T13:29:43.126Z,28.20
2022-08-26T13:34:54.464Z,28.20
2022-08-26T13:40:06.493Z,28.30
2022-08-26T13:45:10.408Z,28.20
2022-08-26T13:50:12.661Z,28.20
2022-08-26T13:55:15.674Z,28.30
2022-08-26T14:00:18.276Z,28.30
2022-08-26T14:05:21.694Z,28.20
2022-08-26T14:10:24.493Z,28.30
2022-08-26T14:15:27.609Z,28.30
2022-08-26T14:20:32.969Z,28.30
2022-08-26T14:25:35.364Z,28.30
2022-08-26T14:30:40.931Z,28.20
2022-08-26T14:35:47.891Z,28.30
2022-08-26T14:40:51.451Z,28.20
2022-08-26T14:45:54.610Z,28.20
2022-08-26T14:50:58.460Z,28.20
2022-08-26T14:56:06.826Z,28.20
2022-08-26T15:01:13.624Z,28.20
2022-08-26T15:06:17.241Z,28.20
2022-08-26T15:11:22.504Z,28.20
2022-08-26T15:16:26.876Z,27.90
2022-08-26T15:21:33.089Z,27.20
2022-08-26T15:26:35.422Z,26.80
2022-08-26T15:31:39.604Z,26.40
2022-08-26T15:36:45.949Z,25.70
2022-08-26T15:41:48.618Z,25.40
2022-08-26T15:46:52.511Z,25.20
2022-08-26T15:51:57.735Z,25.00
2022-08-26T15:57:02.169Z,25.50
2022-08-26T16:02:06.029Z,25.10
2022-08-26T16:07:09.110Z,25.40
2022-08-26T16:12:11.657Z,25.30
2022-08-26T16:17:23.331Z,25.10
2022-08-26T16:22:26.733Z,25.30
2022-08-26T16:27:34.564Z,25.10
2022-08-26T16:32:36.845Z,24.90
2022-08-26T16:37:47.119Z,25.00
2022-08-26T16:42:50.335Z,25.10
2022-08-26T16:47:53.563Z,25.10
2022-08-26T16:53:21.741Z,24.90
2022-08-26T16:58:26.678Z,24.80
2022-08-26T17:03:40.131Z,24.80
2022-08-26T17:08:47.450Z,24.90
2022-08-26T17:13:54.335Z,24.90
2022-08-26T17:18:59.385Z,24.90
2022-08-26T17:24:05.414Z,24.80
2022-08-26T17:29:11.654Z,24.60
2022-08-26T17:34:19.270Z,24.60
2022-08-26T17:39:23.915Z,25.10
2022-08-26T17:44:27.026Z,25.60
2022-08-26T17:49:29.420Z,25.80
2022-08-26T17:54:31.713Z,26.00
2022-08-26T17:59:34.517Z,26.10
2022-08-26T18:04:36.810Z,26.20
2022-08-26T18:09:39.309Z,26.30
2022-08-26T18:14:41.600Z,26.50
2022-08-26T18:24:59.436Z,26.60
2022-08-26T18:30:10.555Z,26.60
2022-08-26T18:35:23.523Z,26.70
2022-08-26T18:40:26.477Z,26.80
2022-08-26T18:45:34.335Z,26.90
2022-08-26T18:50:41.813Z,27.00
2022-08-26T18:55:46.402Z,27.00
2022-08-26T19:00:48.694Z,27.10
2022-08-26T19:06:01.018Z,27.10
2022-08-26T19:11:03.768Z,27.20
2022-08-26T19:16:20.765Z,27.20
2022-08-26T19:21:27.174Z,27.20
2022-08-26T19:26:31.478Z,27.20
2022-08-26T19:31:35.102Z,27.20
2022-08-26T19:36:40.257Z,27.30
2022-08-26T19:42:01.905Z,27.30
2022-08-26T19:47:10.987Z,27.30
2022-08-26T19:52:14.059Z,27.30
2022-08-26T19:57:18.437Z,27.30
2022-08-26T20:02:21.411Z,27.20
2022-08-26T20:07:24.205Z,27.20
2022-08-26T20:12:27.924Z,27.30
2022-08-26T20:17:31.852Z,27.30
2022-08-26T20:22:34.759Z,27.20
2022-08-26T20:27:38.595Z,27.30
2022-08-26T20:32:42.269Z,27.30
2022-08-26T20:37:45.221Z,27.20
2022-08-26T20:42:48.128Z,27.20
2022-08-26T20:47:51.242Z,27.30
2022-08-26T20:52:54.044Z,27.30
2022-08-26T20:57:57.053Z,27.30
2022-08-26T21:03:00.985Z,27.30
2022-08-26T21:08:03.789Z,27.30
2022-08-26T21:13:07.101Z,27.30
2022-08-26T21:18:12.323Z,27.30
2022-08-26T21:23:21.070Z,27.30
2022-08-26T21:28:23.497Z,27.30
2022-08-26T21:33:27.317Z,27.20
2022-08-26T21:38:36.623Z,27.30
2022-08-26T21:43:41.943Z,27.20
2022-08-26T21:48:54.363Z,27.30
2022-08-26T21:53:58.701Z,27.20
2022-08-26T21:59:01.403Z,27.20
2022-08-26T22:04:07.589Z,27.20
2022-08-26T22:09:11.003Z,27.20
2022-08-26T22:14:15.245Z,27.20
2022-08-26T22:19:23.447Z,27.30
2022-08-26T22:24:35.818Z,27.20
2022-08-26T22:29:41.534Z,27.20
2022-08-26T22:34:46.826Z,27.20
2022-08-26T22:39:52.952Z,27.20
2022-08-26T22:45:02.709Z,27.20
2022-08-26T22:50:10.606Z,27.20
2022-08-26T22:55:13.706Z,27.20
2022-08-26T23:00:16.501Z,27.20
2022-08-26T23:05:21.571Z,27.20
2022-08-26T23:10:26.919Z,27.20
2022-08-26T23:15:30.857Z,27.20
2022-08-26T23:20:33.243Z,27.20
2022-08-26T23:25:36.564Z,27.20
2022-08-26T23:30:38.962Z,27.20
2022-08-26T23:35:41.352Z,27.20
2022-08-26T23:40:44.813Z,27.20
2022-08-26T23:45:47.318Z,27.20
2022-08-26T23:51:20.077Z,27.20
2022-08-26T23:56:33.900Z,27.20
